createdAt,value
2023-01-10T00:00:59.043Z,20
2023-01-10T00:01:59.074Z,20
2023-01-10T00:02:59.052Z,20
2023-01-10T00:03:59.045Z,20
2023-01-10T00:04:59.008Z,20
2023-01-10T00:05:59.004Z,20
2023-01-10T00:06:58.982Z,20
2023-01-10T00:07:58.971Z,20
2023-01-10T00:08:58.957Z,20
2023-01-10T00:09:58.956Z,20
2023-01-10T00:10:58.942Z,20
2023-01-10T00:11:58.929Z,20
2023-01-10T00:12:58.992Z,20
2023-01-10T00:13:58.911Z,20
2023-01-10T00:14:58.915Z,20
2023-01-10T00:15:58.892Z,20
2023-01-10T00:16:58.904Z,20
2023-01-10T00:17:58.864Z,20
2023-01-10T00:18:58.859Z,20
2023-01-10T00:19:58.875Z,20
2023-01-10T00:20:58.843Z,20
2023-01-10T00:21:58.833Z,20
2023-01-10T00:22:58.835Z,20
2023-01-10T00:23:58.807Z,20
2023-01-10T00:24:58.803Z,20
2023-01-10T00:25:58.838Z,20
2023-01-10T00:26:58.781Z,20
2023-01-10T00:27:58.776Z,20
2023-01-10T00:28:58.751Z,20
2023-01-10T00:29:58.750Z,20
2023-01-10T00:30:58.798Z,20
2023-01-10T00:31:58.760Z,20
2023-01-10T00:32:58.713Z,20
2023-01-10T00:33:58.703Z,20
2023-01-10T00:34:58.691Z,20
2023-01-10T00:35:58.700Z,20
2023-01-10T00:36:58.678Z,20
2023-01-10T00:37:58.668Z,20
2023-01-10T00:38:58.649Z,20
2023-01-10T00:39:58.648Z,20
2023-01-10T00:40:58.624Z,20
2023-01-10T00:41:58.642Z,20
2023-01-10T00:42:58.613Z,20
2023-01-10T00:43:58.620Z,20
2023-01-10T00:44:58.604Z,20
2023-01-10T00:45:58.633Z,20
2023-01-10T00:46:58.574Z,20
2023-01-10T00:47:58.572Z,20
2023-01-10T00:48:58.548Z,20
2023-01-10T00:49:58.539Z,20
2023-01-10T00:50:58.538Z,20
2023-01-10T00:51:58.519Z,20
2023-01-10T00:52:58.502Z,20
2023-01-10T00:53:58.507Z,20
2023-01-10T00:54:58.494Z,20
2023-01-10T00:55:58.508Z,20
2023-01-10T00:56:58.476Z,20
2023-01-10T00:57:58.488Z,20
2023-01-10T00:58:58.442Z,20
2023-01-10T00:59:58.441Z,20
2023-01-10T01:00:58.423Z,20
2023-01-10T01:01:58.419Z,20
2023-01-10T01:02:58.399Z,20
2023-01-10T01:03:58.390Z,20
2023-01-10T01:04:58.418Z,20
2023-01-10T01:05:58.369Z,20
2023-01-10T01:06:58.372Z,20
2023-01-10T01:07:58.370Z,20
2023-01-10T01:08:58.334Z,20
2023-01-10T01:09:58.332Z,20
2023-01-10T01:10:58.338Z,20
2023-01-10T01:11:58.316Z,20
2023-01-10T01:12:58.313Z,20
2023-01-10T01:13:58.299Z,20
2023-01-10T01:14:58.273Z,20
2023-01-10T01:15:58.266Z,20
2023-01-10T01:16:58.255Z,20
2023-01-10T01:17:58.241Z,20
2023-01-10T01:18:58.240Z,20
2023-01-10T01:19:58.247Z,20
2023-01-10T01:20:58.276Z,20
2023-01-10T01:21:58.202Z,20
2023-01-10T01:22:58.188Z,20
2023-01-10T01:23:58.178Z,20
2023-01-10T01:24:58.176Z,20
2023-01-10T01:25:58.157Z,20
2023-01-10T01:26:58.155Z,20
2023-01-10T01:27:58.146Z,20
2023-01-10T01:28:58.132Z,20
2023-01-10T01:29:58.118Z,20
2023-01-10T01:30:58.111Z,20
2023-01-10T01:31:58.099Z,20
2023-01-10T01:32:58.085Z,20
2023-01-10T01:33:58.107Z,20
2023-01-10T01:34:58.066Z,20
2023-01-10T01:35:58.053Z,20
2023-01-10T01:36:58.045Z,20
2023-01-10T01:37:58.037Z,20
2023-01-10T01:38:58.039Z,20
2023-01-10T01:39:58.014Z,20
2023-01-10T01:40:58.046Z,20
2023-01-10T01:41:58.008Z,20
2023-01-10T01:42:57.996Z,20
2023-01-10T01:43:58.002Z,20
2023-01-10T01:44:57.960Z,20
2023-01-10T01:45:57.955Z,20
2023-01-10T01:46:57.950Z,20
2023-01-10T01:47:57.930Z,20
2023-01-10T01:48:57.928Z,20
2023-01-10T01:49:57.931Z,20
2023-01-10T01:50:57.901Z,20
2023-01-10T01:51:57.891Z,20
2023-01-10T01:52:57.876Z,20
2023-01-10T01:53:57.871Z,20
2023-01-10T01:54:57.864Z,20
2023-01-10T01:55:57.851Z,20
2023-01-10T01:56:57.858Z,20
2023-01-10T01:57:57.830Z,20
2023-01-10T01:58:57.821Z,20
2023-01-10T01:59:57.809Z,20
2023-01-10T02:00:57.801Z,20
2023-01-10T02:01:57.793Z,20
2023-01-10T02:02:57.782Z,20
2023-01-10T02:03:57.782Z,20
2023-01-10T02:04:57.762Z,20
2023-01-10T02:05:57.754Z,20
2023-01-10T02:06:57.733Z,20
2023-01-10T02:07:57.726Z,20
2023-01-10T02:08:57.728Z,20
2023-01-10T02:09:57.720Z,20
2023-01-10T02:10:57.703Z,20
2023-01-10T02:11:57.737Z,20
2023-01-10T02:12:57.683Z,20
2023-01-10T02:13:57.658Z,20
2023-01-10T02:14:57.664Z,20
2023-01-10T02:15:57.669Z,20
2023-01-10T02:16:57.645Z,20
2023-01-10T02:17:57.621Z,20
2023-01-10T02:18:57.623Z,20
2023-01-10T02:19:57.597Z,20
2023-01-10T02:20:57.595Z,20
2023-01-10T02:21:57.577Z,20
2023-01-10T02:22:57.569Z,20
2023-01-10T02:23:57.568Z,20
2023-01-10T02:24:57.548Z,20
2023-01-10T02:25:57.538Z,20
2023-01-10T02:26:57.556Z,20
2023-01-10T02:27:57.517Z,20
2023-01-10T02:28:57.507Z,20
2023-01-10T02:29:57.496Z,20
2023-01-10T02:30:57.485Z,16
2023-01-10T02:31:57.490Z,16
2023-01-10T02:32:57.474Z,16
2023-01-10T02:33:57.455Z,16
2023-01-10T02:34:57.453Z,16
2023-01-10T02:35:57.437Z,16
2023-01-10T02:36:57.424Z,16
2023-01-10T02:37:57.477Z,16
2023-01-10T02:38:57.411Z,20
2023-01-10T02:39:57.392Z,20
2023-01-10T02:40:57.396Z,16
2023-01-10T02:41:57.380Z,16
2023-01-10T02:42:57.360Z,16
2023-01-10T02:43:57.352Z,16
2023-01-10T02:44:57.361Z,16
2023-01-10T02:45:57.329Z,20
2023-01-10T02:46:57.322Z,20
2023-01-10T02:47:57.339Z,16
2023-01-10T02:48:57.309Z,20
2023-01-10T02:49:57.292Z,16
2023-01-10T02:50:57.288Z,20
2023-01-10T02:51:57.269Z,20
2023-01-10T02:52:57.261Z,20
2023-01-10T02:53:57.267Z,20
2023-01-10T02:54:57.249Z,20
2023-01-10T02:55:57.234Z,20
2023-01-10T02:56:57.212Z,20
2023-01-10T02:57:57.210Z,20
2023-01-10T02:58:57.205Z,20
2023-01-10T02:59:57.204Z,20
2023-01-10T03:00:57.174Z,20
2023-01-10T03:01:57.164Z,20
2023-01-10T03:02:57.161Z,20
2023-01-10T03:03:57.156Z,20
2023-01-10T03:04:57.126Z,20
2023-01-10T03:05:57.125Z,20
2023-01-10T03:06:57.110Z,20
2023-01-10T03:07:57.104Z,20
2023-01-10T03:08:57.130Z,20
2023-01-10T03:09:57.092Z,20
2023-01-10T03:10:57.074Z,20
2023-01-10T03:11:57.065Z,20
2023-01-10T03:12:57.057Z,20
2023-01-10T03:13:57.039Z,20
2023-01-10T03:14:57.033Z,20
2023-01-10T03:15:57.014Z,20
2023-01-10T03:16:57.009Z,20
2023-01-10T03:17:56.999Z,20
2023-01-10T03:18:56.990Z,20
2023-01-10T03:19:56.971Z,20
2023-01-10T03:20:57.004Z,20
2023-01-10T03:21:56.950Z,20
2023-01-10T03:22:56.939Z,20
2023-01-10T03:23:56.933Z,20
2023-01-10T03:24:56.925Z,20
2023-01-10T03:25:56.913Z,20
2023-01-10T03:26:56.912Z,20
2023-01-10T03:27:56.899Z,20
2023-01-10T03:28:56.884Z,20
2023-01-10T03:29:56.890Z,20
2023-01-10T03:30:56.863Z,20
2023-01-10T03:31:56.846Z,20
2023-01-10T03:32:56.838Z,20
2023-01-10T03:33:56.836Z,20
2023-01-10T03:34:56.820Z,20
2023-01-10T03:35:56.820Z,20
2023-01-10T03:36:56.793Z,20
2023-01-10T03:37:56.809Z,20
2023-01-10T03:38:56.775Z,20
2023-01-10T03:39:56.765Z,20
2023-01-10T03:40:56.753Z,20
2023-01-10T03:41:56.750Z,20
2023-01-10T03:42:56.752Z,20
2023-01-10T03:43:56.729Z,20
2023-01-10T03:44:56.724Z,20
2023-01-10T03:45:56.734Z,20
2023-01-10T03:46:56.697Z,20
2023-01-10T03:47:56.693Z,20
2023-01-10T03:48:56.679Z,20
2023-01-10T03:49:56.660Z,20
2023-01-10T03:50:56.653Z,20
2023-01-10T03:51:56.645Z,20
2023-01-10T03:52:56.634Z,20
2023-01-10T03:53:56.624Z,20
2023-01-10T03:54:56.617Z,20
2023-01-10T03:55:56.667Z,20
2023-01-10T03:56:56.645Z,20
2023-01-10T03:57:56.602Z,20
2023-01-10T03:58:56.606Z,20
2023-01-10T03:59:56.559Z,20
2023-01-10T04:00:56.549Z,20
2023-01-10T04:01:56.563Z,20
2023-01-10T04:02:56.626Z,20
2023-01-10T04:43:11.432Z,20
2023-01-10T04:44:11.411Z,20
2023-01-10T04:45:11.434Z,20
2023-01-10T04:46:11.411Z,24
2023-01-10T04:47:11.264Z,20
2023-01-10T04:48:11.468Z,20
2023-01-10T04:49:11.220Z,20
2023-01-10T04:50:11.186Z,20
2023-01-10T04:51:11.204Z,20
2023-01-10T04:52:11.167Z,20
2023-01-10T04:53:11.167Z,20
2023-01-10T04:54:11.172Z,20
2023-01-10T04:55:11.194Z,20
2023-01-10T04:56:11.133Z,20
2023-01-10T04:57:11.112Z,20
2023-01-10T04:58:11.097Z,20
2023-01-10T04:59:11.108Z,20
2023-01-10T05:00:11.075Z,20
2023-01-10T05:01:11.070Z,20
2023-01-10T05:02:11.090Z,20
2023-01-10T05:03:11.051Z,20
2023-01-10T05:04:11.033Z,20
2023-01-10T05:05:11.031Z,20
2023-01-10T05:06:11.011Z,20
2023-01-10T05:07:11.005Z,20
2023-01-10T05:08:11.031Z,20
2023-01-10T05:09:10.978Z,20
2023-01-10T05:10:10.976Z,20
2023-01-10T05:11:10.966Z,20
2023-01-10T05:12:10.949Z,20
2023-01-10T05:13:10.941Z,20
2023-01-10T05:14:10.959Z,20
2023-01-10T05:15:10.924Z,20
2023-01-10T05:16:10.934Z,20
2023-01-10T05:17:10.899Z,24
2023-01-10T05:18:10.891Z,20
2023-01-10T05:19:10.900Z,20
2023-01-10T05:20:10.871Z,24
2023-01-10T05:21:10.870Z,20
2023-01-10T05:22:10.853Z,20
2023-01-10T05:23:10.851Z,20
2023-01-10T05:24:10.828Z,20
2023-01-10T05:25:10.818Z,20
2023-01-10T05:26:10.818Z,20
2023-01-10T05:27:10.810Z,24
2023-01-10T05:28:10.791Z,28
2023-01-10T05:29:10.776Z,20
2023-01-10T05:30:10.784Z,20
2023-01-10T05:31:10.754Z,24
2023-01-10T05:32:10.758Z,20
2023-01-10T05:33:10.743Z,20
2023-01-10T05:34:10.747Z,20
2023-01-10T05:35:10.716Z,20
2023-01-10T05:36:10.708Z,20
2023-01-10T05:37:10.692Z,20
2023-01-10T05:38:10.719Z,20
2023-01-10T05:56:47.616Z,20
2023-01-10T05:57:47.521Z,20
2023-01-10T05:58:47.476Z,20
2023-01-10T05:59:48.481Z,20
2023-01-10T06:00:47.365Z,20
2023-01-10T06:01:47.328Z,20
2023-01-10T07:12:16.279Z,28
2023-01-10T07:13:16.305Z,24
2023-01-10T07:14:16.304Z,24
2023-01-10T07:15:16.310Z,32
2023-01-10T07:16:16.238Z,36
2023-01-10T07:17:16.315Z,40
2023-01-10T07:18:16.136Z,36
2023-01-10T07:19:16.109Z,40
2023-01-10T07:20:16.114Z,44
2023-01-10T07:21:16.100Z,60
2023-01-10T07:22:16.090Z,60
2023-01-10T07:23:16.079Z,60
2023-01-10T07:24:16.053Z,56
2023-01-10T07:25:16.049Z,76
2023-01-10T07:26:16.055Z,72
2023-01-10T07:27:16.034Z,76
2023-01-10T07:28:16.038Z,60
2023-01-10T07:29:16.007Z,64
2023-01-10T07:30:15.993Z,80
2023-01-10T07:31:16.000Z,88
2023-01-10T07:32:15.974Z,88
2023-01-10T07:33:16.002Z,80
2023-01-10T07:34:15.961Z,72
2023-01-10T07:35:15.949Z,76
2023-01-10T08:09:54.502Z,732
2023-01-10T08:10:54.332Z,708
2023-01-10T08:11:54.373Z,752
2023-01-10T08:12:54.380Z,840
2023-01-10T08:13:54.392Z,920
2023-01-10T08:14:54.286Z,1020
2023-01-10T08:15:54.264Z,1188
2023-01-10T08:16:54.261Z,1236
2023-01-10T08:17:54.224Z,1496
2023-01-10T08:18:54.240Z,1504
2023-01-10T08:19:54.429Z,1468
2023-01-10T08:20:54.204Z,1372
2023-01-10T08:21:54.204Z,1036
2023-01-10T08:22:54.190Z,948
2023-01-10T08:23:54.191Z,876
2023-01-10T08:24:54.162Z,836
2023-01-10T08:25:54.189Z,816
2023-01-10T08:26:54.155Z,800
2023-01-10T08:27:54.142Z,864
2023-01-10T08:28:54.108Z,1056
2023-01-10T08:29:54.098Z,1204
2023-01-10T08:30:54.194Z,1320
2023-01-10T08:31:54.081Z,1428
2023-01-10T08:32:54.077Z,1320
2023-01-10T08:33:54.061Z,1128
2023-01-10T08:34:54.046Z,908
2023-01-10T08:35:54.085Z,972
2023-01-10T08:36:54.027Z,936
2023-01-10T08:37:54.026Z,1020
2023-01-10T08:38:54.019Z,1048
2023-01-10T08:39:54.050Z,860
2023-01-10T08:40:54.021Z,692
2023-01-10T08:41:53.984Z,628
2023-01-10T08:42:54.010Z,580
2023-01-10T08:43:53.954Z,516
2023-01-10T08:44:53.957Z,452
2023-01-10T08:45:53.976Z,428
2023-01-10T08:46:53.934Z,424
2023-01-10T08:47:53.927Z,504
2023-01-10T08:48:54.151Z,528
2023-01-10T08:49:54.029Z,564
2023-01-10T08:50:53.912Z,564
2023-01-10T08:51:53.885Z,632
2023-01-10T08:52:53.867Z,640
2023-01-10T08:53:53.939Z,808
2023-01-10T08:54:53.842Z,692
2023-01-10T08:55:53.833Z,440
2023-01-10T08:56:53.823Z,396
2023-01-10T08:57:53.818Z,440
2023-01-10T08:58:53.879Z,592
2023-01-10T08:59:53.790Z,744
2023-01-10T09:00:53.800Z,920
2023-01-10T09:01:53.810Z,860
2023-01-10T09:02:53.762Z,704
2023-01-10T09:03:53.749Z,524
2023-01-10T09:04:53.733Z,400
2023-01-10T09:05:53.724Z,384
2023-01-10T09:06:53.741Z,344
2023-01-10T09:07:53.703Z,356
2023-01-10T09:08:53.698Z,412
2023-01-10T09:09:53.685Z,444
2023-01-10T09:10:53.670Z,440
2023-01-10T09:11:53.661Z,456
2023-01-10T09:12:53.656Z,460
2023-01-10T09:13:53.654Z,516
2023-01-10T09:14:53.631Z,632
2023-01-10T09:15:53.618Z,800
2023-01-10T09:16:53.623Z,968
2023-01-10T09:17:53.603Z,876
2023-01-10T09:18:53.595Z,764
2023-01-10T09:19:53.605Z,680
2023-01-10T09:20:53.579Z,660
2023-01-10T09:21:53.558Z,704
2023-01-10T09:22:53.547Z,704
2023-01-10T09:23:53.549Z,776
2023-01-10T09:24:53.532Z,868
2023-01-10T09:25:53.526Z,1064
2023-01-10T09:26:53.534Z,960
2023-01-10T09:27:53.505Z,960
2023-01-10T09:28:53.484Z,908
2023-01-10T09:29:53.474Z,840
2023-01-10T09:30:53.462Z,880
2023-01-10T09:31:53.450Z,1076
2023-01-10T09:32:53.445Z,1092
2023-01-10T09:33:53.435Z,1268
2023-01-10T09:34:53.423Z,1272
2023-01-10T09:35:53.438Z,1424
2023-01-10T09:36:53.402Z,1660
2023-01-10T09:37:53.387Z,1928
2023-01-10T09:38:53.383Z,1940
2023-01-10T09:39:53.373Z,2148
2023-01-10T09:40:53.363Z,2248
2023-01-10T09:41:53.356Z,2276
2023-01-10T09:42:53.346Z,2212
2023-01-10T09:43:53.335Z,2060
2023-01-10T09:44:53.318Z,2036
2023-01-10T09:45:53.307Z,2216
2023-01-10T09:46:53.297Z,2480
2023-01-10T09:47:53.285Z,2304
2023-01-10T09:48:53.299Z,2420
2023-01-10T09:49:53.375Z,2032
2023-01-10T09:50:53.277Z,2164
2023-01-10T09:51:53.243Z,1980
2023-01-10T09:52:53.239Z,2260
2023-01-10T09:53:53.225Z,1720
2023-01-10T09:54:53.211Z,1156
2023-01-10T09:55:53.231Z,1064
2023-01-10T09:56:53.198Z,1088
2023-01-10T09:57:53.183Z,1104
2023-01-10T09:58:53.171Z,1328
2023-01-10T09:59:53.171Z,1456
2023-01-10T10:00:53.158Z,1692
2023-01-10T10:01:53.146Z,1808
2023-01-10T10:11:45.703Z,1352
2023-01-10T10:12:45.697Z,1396
2023-01-10T10:13:45.688Z,1236
2023-01-10T10:14:45.655Z,1296
2023-01-10T10:15:45.667Z,1448
2023-01-10T10:16:45.626Z,1744
2023-01-10T10:17:45.627Z,1608
2023-01-10T10:18:45.623Z,1268
2023-01-10T10:19:45.595Z,908
2023-01-10T10:20:45.577Z,852
2023-01-10T10:21:45.575Z,872
2023-01-10T10:22:45.586Z,904
2023-01-10T10:23:45.568Z,892
2023-01-10T10:24:45.610Z,928
2023-01-10T10:25:45.576Z,1044
2023-01-10T10:26:45.589Z,1096
2023-01-10T10:27:45.639Z,1240
2023-01-10T10:28:46.502Z,1280
2023-01-10T10:29:45.472Z,1528
2023-01-10T10:30:45.500Z,1848
2023-01-10T10:31:45.462Z,2096
2023-01-10T10:32:45.453Z,1816
2023-01-10T10:33:45.438Z,1804
2023-01-10T10:34:45.427Z,1700
2023-01-10T10:35:45.455Z,1828
2023-01-10T10:36:45.442Z,1736
2023-01-10T10:37:45.394Z,1544
2023-01-10T10:38:45.387Z,1588
2023-01-10T10:39:45.373Z,1812
2023-01-10T10:40:45.364Z,1868
2023-01-10T10:41:45.423Z,2360
2023-01-10T10:42:46.354Z,2124
2023-01-10T10:43:45.338Z,2140
2023-01-10T10:44:45.318Z,2184
2023-01-10T10:45:45.316Z,2488
2023-01-10T10:46:45.332Z,2308
2023-01-10T10:47:45.294Z,2412
2023-01-10T10:48:45.279Z,3172
2023-01-10T10:49:45.271Z,3288
2023-01-10T10:57:31.538Z,2448
2023-01-10T10:58:31.371Z,1688
2023-01-10T10:59:31.564Z,1372
2023-01-10T11:00:31.406Z,1452
2023-01-10T11:01:31.308Z,1528
2023-01-10T11:02:31.266Z,1656
2023-01-10T11:03:31.244Z,1556
2023-01-10T11:04:31.243Z,1472
2023-01-10T11:05:31.228Z,1896
2023-01-10T11:06:31.215Z,2112
2023-01-10T11:07:31.210Z,2504
2023-01-10T11:08:31.211Z,2820
2023-01-10T11:09:31.174Z,3272
2023-01-10T11:10:31.196Z,2744
2023-01-10T11:11:31.167Z,2432
2023-01-10T11:12:39.810Z,2528
2023-01-10T11:13:31.135Z,2480
2023-01-10T11:14:31.127Z,2536
2023-01-10T11:15:31.119Z,2480
2023-01-10T11:16:31.114Z,2604
2023-01-10T11:17:31.099Z,2352
2023-01-10T11:18:31.086Z,2356
2023-01-10T11:19:31.069Z,2636
2023-01-10T11:20:31.081Z,2860
2023-01-10T11:21:31.074Z,2448
2023-01-10T11:22:31.040Z,2276
2023-01-10T11:23:31.029Z,2496
2023-01-10T11:24:31.025Z,2308
2023-01-10T11:25:31.008Z,2312
2023-01-10T11:26:31.000Z,2224
2023-01-10T11:27:30.989Z,1904
2023-01-10T11:28:30.986Z,2304
2023-01-10T11:29:30.976Z,3012
2023-01-10T11:30:30.954Z,3360
2023-01-10T11:31:30.952Z,2724
2023-01-10T11:32:30.985Z,2816
2023-01-10T11:33:30.922Z,3636
2023-01-10T11:34:30.913Z,3692
2023-01-10T11:35:30.922Z,3556
2023-01-10T11:36:30.894Z,4004
2023-01-10T11:37:30.894Z,3896
2023-01-10T11:38:30.891Z,4144
2023-01-10T11:39:30.875Z,4852
2023-01-10T11:40:30.849Z,5512
2023-01-10T11:41:30.854Z,5368
2023-01-10T11:42:30.829Z,5020
2023-01-10T11:43:30.821Z,4860
2023-01-10T11:44:30.822Z,4972
2023-01-10T11:45:30.802Z,5948
2023-01-10T11:46:30.787Z,5760
2023-01-10T11:47:30.779Z,4316
2023-01-10T11:48:30.768Z,3348
2023-01-10T11:49:30.770Z,3356
2023-01-10T11:50:30.753Z,4240
2023-01-10T11:51:30.738Z,5620
2023-01-10T11:52:30.737Z,7256
2023-01-10T11:53:30.710Z,4944
2023-01-10T11:54:30.711Z,9088
2023-01-10T11:55:30.691Z,9632
2023-01-10T11:56:30.679Z,7696
2023-01-10T11:57:30.671Z,4264
2023-01-10T11:58:30.666Z,3112
2023-01-10T11:59:30.650Z,3416
2023-01-10T12:00:30.641Z,3436
2023-01-10T12:01:30.661Z,3468
2023-01-10T12:02:30.617Z,3408
2023-01-10T12:03:30.608Z,3488
2023-01-10T12:04:30.605Z,3404
2023-01-10T12:05:30.595Z,3624
2023-01-10T12:06:30.593Z,4068
2023-01-10T12:07:30.565Z,3924
2023-01-10T12:08:30.555Z,3524
2023-01-10T12:09:30.556Z,4072
2023-01-10T12:10:30.535Z,4792
2023-01-10T12:11:30.523Z,6172
2023-01-10T12:12:30.532Z,5796
2023-01-10T12:13:30.502Z,8040
2023-01-10T12:14:30.489Z,8240
2023-01-10T12:15:30.479Z,8728
2023-01-10T12:16:30.472Z,12504
2023-01-10T12:17:30.462Z,14480
2023-01-10T12:18:30.460Z,21824
2023-01-10T12:19:30.443Z,26272
2023-01-10T12:20:30.436Z,16136
2023-01-10T12:21:30.439Z,25792
2023-01-10T12:22:30.412Z,24384
2023-01-10T12:23:30.401Z,21312
2023-01-10T12:24:30.402Z,19680
2023-01-10T12:25:30.371Z,19616
2023-01-10T12:26:30.373Z,19104
2023-01-10T12:27:30.352Z,14480
2023-01-10T12:28:30.349Z,7316
2023-01-10T12:29:30.337Z,8900
2023-01-10T12:30:30.353Z,15264
2023-01-10T12:31:30.312Z,15148
2023-01-10T12:32:30.304Z,14216
2023-01-10T12:33:30.289Z,9548
2023-01-10T12:34:30.284Z,11960
2023-01-10T12:35:30.268Z,9820
2023-01-10T12:36:30.257Z,8860
2023-01-10T12:37:30.247Z,7176
2023-01-10T12:38:30.238Z,5444
2023-01-10T12:39:30.251Z,5228
2023-01-10T12:40:30.215Z,5780
2023-01-10T12:41:30.207Z,3980
2023-01-10T12:42:30.195Z,4656
2023-01-10T12:43:30.190Z,4524
2023-01-10T12:44:30.200Z,3896
2023-01-10T12:45:30.186Z,3448
2023-01-10T12:46:30.166Z,3024
2023-01-10T12:47:30.135Z,2848
2023-01-10T12:48:30.128Z,2652
2023-01-10T12:49:30.177Z,2484
2023-01-10T12:50:30.103Z,2252
2023-01-10T12:51:30.106Z,2084
2023-01-10T12:52:30.092Z,2424
2023-01-10T12:53:30.079Z,2960
2023-01-10T12:54:30.063Z,2432
2023-01-10T12:55:30.054Z,2100
2023-01-10T12:56:30.046Z,2776
2023-01-10T12:57:30.034Z,2556
2023-01-10T12:58:30.020Z,2252
2023-01-10T12:59:30.010Z,3384
2023-01-10T13:00:29.998Z,2984
2023-01-10T13:01:29.994Z,2412
2023-01-10T13:02:29.996Z,3272
2023-01-10T13:03:29.986Z,3264
2023-01-10T13:04:29.968Z,2956
2023-01-10T13:05:29.948Z,2700
2023-01-10T13:06:29.951Z,2464
2023-01-10T13:07:29.957Z,2252
2023-01-10T13:08:29.953Z,2352
2023-01-10T13:09:29.910Z,2048
2023-01-10T13:10:29.900Z,1688
2023-01-10T13:11:29.891Z,1568
2023-01-10T13:12:29.873Z,1784
2023-01-10T13:13:29.876Z,1976
2023-01-10T13:14:29.853Z,2084
2023-01-10T13:15:29.863Z,2428
2023-01-10T13:16:29.847Z,3080
2023-01-10T13:17:29.826Z,3116
2023-01-10T13:18:29.813Z,2872
2023-01-10T13:19:29.812Z,2400
2023-01-10T13:20:29.822Z,2112
2023-01-10T13:21:29.783Z,1968
2023-01-10T13:22:29.779Z,1748
2023-01-10T13:23:29.767Z,1816
2023-01-10T13:24:29.764Z,2012
2023-01-10T13:25:29.741Z,2260
2023-01-10T13:26:29.729Z,2488
2023-01-10T13:27:29.728Z,2720
2023-01-10T13:28:29.710Z,2700
2023-01-10T13:29:29.711Z,2628
2023-01-10T13:30:29.687Z,2624
2023-01-10T13:31:29.679Z,2548
2023-01-10T13:32:29.694Z,2412
2023-01-10T13:33:29.661Z,2416
2023-01-10T13:34:29.695Z,2508
2023-01-10T13:35:29.634Z,2560
2023-01-10T13:36:29.622Z,2548
2023-01-10T13:37:29.639Z,2472
2023-01-10T13:38:29.613Z,2432
2023-01-10T13:39:29.595Z,2416
2023-01-10T13:40:29.589Z,2396
2023-01-10T13:41:29.568Z,2384
2023-01-10T13:42:29.559Z,2356
2023-01-10T13:43:29.567Z,2300
2023-01-10T13:44:29.546Z,2264
2023-01-10T13:45:29.529Z,2216
2023-01-10T13:46:29.553Z,2184
2023-01-10T13:47:29.550Z,2148
2023-01-10T13:48:29.505Z,2120
2023-01-10T13:49:29.542Z,2004
2023-01-10T13:50:29.508Z,2028
2023-01-10T13:51:29.471Z,2048
2023-01-10T13:52:29.455Z,2028
2023-01-10T13:53:29.451Z,2032
2023-01-10T13:54:29.457Z,1992
2023-01-10T13:55:29.430Z,1964
2023-01-10T13:56:29.421Z,1952
2023-01-10T13:57:29.404Z,1924
2023-01-10T13:58:29.404Z,1888
2023-01-10T13:59:29.381Z,1832
2023-01-10T14:00:29.370Z,1784
2023-01-10T14:01:29.362Z,1740
2023-01-10T14:02:29.348Z,1704
2023-01-10T14:03:29.338Z,1660
2023-01-10T14:04:29.359Z,1608
2023-01-10T14:05:29.323Z,1560
2023-01-10T14:06:29.312Z,1516
2023-01-10T14:07:29.291Z,1468
2023-01-10T14:08:29.289Z,1428
2023-01-10T14:09:29.284Z,1396
2023-01-10T14:10:29.274Z,1360
2023-01-10T14:11:29.263Z,1332
2023-01-10T14:12:29.248Z,1316
2023-01-10T14:13:29.244Z,1304
2023-01-10T14:14:29.226Z,1296
2023-01-10T14:15:29.211Z,1276
2023-01-10T14:16:29.202Z,1264
2023-01-10T14:17:29.232Z,1248
2023-01-10T14:18:29.191Z,1236
2023-01-10T14:19:29.168Z,1224
2023-01-10T14:20:29.162Z,1216
2023-01-10T14:21:29.146Z,1208
2023-01-10T14:22:29.138Z,1200
2023-01-10T14:23:29.126Z,1188
2023-01-10T14:24:29.120Z,1168
2023-01-10T14:25:29.104Z,1160
2023-01-10T14:26:29.096Z,1140
2023-01-10T14:27:29.090Z,1120
2023-01-10T14:28:29.071Z,1104
2023-01-10T14:29:29.065Z,1080
2023-01-10T14:30:29.091Z,1052
2023-01-10T14:31:29.036Z,1028
2023-01-10T14:32:29.026Z,996
2023-01-10T14:33:29.023Z,976
2023-01-10T14:34:29.013Z,956
2023-01-10T14:35:29.000Z,928
2023-01-10T14:36:28.999Z,912
2023-01-10T14:37:28.979Z,884
2023-01-10T14:38:28.962Z,868
2023-01-10T14:39:28.956Z,856
2023-01-10T14:40:28.947Z,836
2023-01-10T14:41:28.937Z,820
2023-01-10T14:42:28.928Z,796
2023-01-10T14:43:28.917Z,780
2023-01-10T14:44:28.906Z,756
2023-01-10T14:45:28.890Z,740
2023-01-10T14:46:28.888Z,724
2023-01-10T14:47:28.872Z,704
2023-01-10T14:48:28.860Z,680
2023-01-10T14:49:28.855Z,660
2023-01-10T14:50:28.864Z,632
2023-01-10T14:51:28.860Z,604
2023-01-10T14:52:28.822Z,572
2023-01-10T14:53:28.835Z,548
2023-01-10T14:54:28.803Z,512
2023-01-10T14:55:28.791Z,484
2023-01-10T14:56:28.782Z,460
2023-01-10T14:57:28.768Z,436
2023-01-10T14:58:28.779Z,420
2023-01-10T14:59:28.766Z,404
2023-01-10T15:00:28.740Z,396
2023-01-10T15:01:28.726Z,384
2023-01-10T15:02:28.714Z,376
2023-01-10T15:03:28.700Z,368
2023-01-10T15:04:28.719Z,356
2023-01-10T15:05:28.680Z,344
2023-01-10T15:06:28.671Z,328
2023-01-10T15:07:28.660Z,316
2023-01-10T15:08:28.763Z,304
2023-01-10T15:09:28.644Z,288
2023-01-10T15:10:28.628Z,272
2023-01-10T15:11:28.622Z,256
2023-01-10T15:12:28.615Z,240
2023-01-10T15:13:28.597Z,224
2023-01-10T15:14:28.589Z,204
2023-01-10T15:15:28.592Z,192
2023-01-10T15:16:28.567Z,180
2023-01-10T15:17:28.577Z,168
2023-01-10T15:18:28.549Z,156
2023-01-10T15:19:28.533Z,144
2023-01-10T15:20:28.523Z,136
2023-01-10T15:21:28.523Z,124
2023-01-10T15:22:28.506Z,116
2023-01-10T15:23:28.506Z,108
2023-01-10T15:24:28.486Z,100
2023-01-10T15:25:28.472Z,92
2023-01-10T15:26:28.472Z,84
2023-01-10T15:27:28.455Z,80
2023-01-10T15:28:28.437Z,76
2023-01-10T15:29:28.430Z,72
2023-01-10T15:30:28.422Z,64
2023-01-10T15:31:28.414Z,64
2023-01-10T15:32:28.410Z,60
2023-01-10T15:33:28.391Z,72
2023-01-10T15:34:28.399Z,72
2023-01-10T15:35:28.372Z,68
2023-01-10T15:36:28.354Z,64
2023-01-10T15:37:28.346Z,64
2023-01-10T15:38:28.365Z,60
2023-01-10T15:39:28.358Z,60
2023-01-10T15:40:28.325Z,56
2023-01-10T15:41:28.302Z,52
2023-01-10T15:42:28.292Z,48
2023-01-10T15:43:28.296Z,44
2023-01-10T15:44:28.270Z,44
2023-01-10T15:45:28.260Z,40
2023-01-10T15:46:28.250Z,40
2023-01-10T15:47:28.239Z,44
2023-01-10T15:48:28.246Z,44
2023-01-10T15:49:28.219Z,40
2023-01-10T15:50:28.208Z,40
2023-01-10T15:51:28.224Z,36
2023-01-10T15:52:28.187Z,36
2023-01-10T15:53:28.176Z,36
2023-01-10T15:54:28.165Z,36
2023-01-10T15:55:28.156Z,32
2023-01-10T15:56:28.148Z,36
2023-01-10T15:57:28.132Z,32
2023-01-10T15:58:28.123Z,32
2023-01-10T15:59:28.112Z,32
2023-01-10T16:00:28.101Z,28
2023-01-10T16:01:28.101Z,32
2023-01-10T16:02:28.103Z,32
2023-01-10T16:03:28.080Z,32
2023-01-10T16:04:28.064Z,32
2023-01-10T16:05:28.048Z,32
2023-01-10T16:06:28.040Z,32
2023-01-10T16:07:28.028Z,28
2023-01-10T16:08:28.019Z,28
2023-01-10T16:09:28.014Z,28
2023-01-10T16:10:28.003Z,28
2023-01-10T16:11:28.026Z,28
2023-01-10T16:12:27.983Z,28
2023-01-10T16:13:27.974Z,28
2023-01-10T16:14:27.954Z,28
2023-01-10T16:15:27.950Z,28
2023-01-10T16:16:27.932Z,24
2023-01-10T16:17:27.934Z,28
2023-01-10T16:18:27.932Z,28
2023-01-10T16:19:27.903Z,28
2023-01-10T16:20:27.892Z,28
2023-01-10T16:21:27.879Z,28
2023-01-10T16:22:27.885Z,28
2023-01-10T16:23:27.873Z,28
2023-01-10T16:24:27.850Z,28
2023-01-10T16:25:27.841Z,28
2023-01-10T16:26:27.828Z,28
2023-01-10T16:27:27.821Z,28
2023-01-10T16:28:27.822Z,28
2023-01-10T16:29:27.814Z,28
2023-01-10T16:30:27.791Z,28
2023-01-10T16:31:27.776Z,28
2023-01-10T16:32:27.768Z,28
2023-01-10T16:33:27.767Z,28
2023-01-10T16:34:27.742Z,28
2023-01-10T16:35:27.736Z,28
2023-01-10T16:36:27.726Z,28
2023-01-10T16:37:27.715Z,28
2023-01-10T16:38:27.699Z,28
2023-01-10T16:39:27.697Z,28
2023-01-10T16:40:27.677Z,28
2023-01-10T16:41:27.670Z,28
2023-01-10T16:42:27.665Z,28
2023-01-10T16:43:27.646Z,28
2023-01-10T16:44:27.641Z,28
2023-01-10T16:45:27.625Z,28